sensor_id;sensor_type;location;lat;lon;timestamp;pressure;altitude;pressure_sealevel;temperature;humidity
66547;BME280;53400;50.364;14.874;2023-03-16T00:00:48;99105.28;;;-1.40;100.00
66547;BME280;53400;50.364;14.874;2023-03-16T00:03:19;99107.25;;;-1.68;100.00
66547;BME280;53400;50.364;14.874;2023-03-16T00:05:45;99102.59;;;-1.56;100.00
66547;BME280;53400;50.364;14.874;2023-03-16T00:08:11;99109.94;;;-1.60;100.00
66547;BME280;53400;50.364;14.874;2023-03-16T00:10:40;99109.75;;;-1.67;100.00
66547;BME280;53400;50.364;14.874;2023-03-16T00:13:12;99114.22;;;-1.85;100.00
66547;BME280;53400;50.364;14.874;2023-03-16T00:15:39;99118.66;;;-1.86;100.00
66547;BME280;53400;50.364;14.874;2023-03-16T00:18:05;99120.09;;;-1.65;100.00
66547;BME280;53400;50.364;14.874;2023-03-16T00:20:31;99114.94;;;-1.49;100.00
66547;BME280;53400;50.364;14.874;2023-03-16T00:22:58;99117.97;;;-1.62;100.00
66547;BME280;53400;50.364;14.874;2023-03-16T00:25:24;99118.91;;;-1.71;100.00
66547;BME280;53400;50.364;14.874;2023-03-16T00:27:50;99113.16;;;-1.48;100.00
66547;BME280;53400;50.364;14.874;2023-03-16T00:30:16;99116.34;;;-1.36;100.00
66547;BME280;53400;50.364;14.874;2023-03-16T00:32:43;99112.59;;;-1.26;100.00
66547;BME280;53400;50.364;14.874;2023-03-16T00:35:09;99119.34;;;-1.23;100.00
66547;BME280;53400;50.364;14.874;2023-03-16T00:37:35;99118.59;;;-1.42;100.00
66547;BME280;53400;50.364;14.874;2023-03-16T00:40:02;99115.50;;;-1.63;100.00
66547;BME280;53400;50.364;14.874;2023-03-16T00:42:29;99115.63;;;-1.73;100.00
66547;BME280;53400;50.364;14.874;2023-03-16T00:44:57;99115.03;;;-1.85;100.00
66547;BME280;53400;50.364;14.874;2023-03-16T00:47:24;99117.81;;;-1.86;100.00
66547;BME280;53400;50.364;14.874;2023-03-16T00:49:51;99123.66;;;-1.92;100.00
66547;BME280;53400;50.364;14.874;2023-03-16T00:52:17;99119.38;;;-1.75;100.00
66547;BME280;53400;50.364;14.874;2023-03-16T00:54:45;99123.44;;;-1.81;100.00
66547;BME280;53400;50.364;14.874;2023-03-16T00:57:12;99122.63;;;-1.81;100.00
66547;BME280;53400;50.364;14.874;2023-03-16T00:59:38;99123.66;;;-1.48;100.00
66547;BME280;53400;50.364;14.874;2023-03-16T01:02:06;99128.22;;;-1.50;100.00
66547;BME280;53400;50.364;14.874;2023-03-16T01:04:32;99126.16;;;-1.65;100.00
66547;BME280;53400;50.364;14.874;2023-03-16T01:07:02;99125.31;;;-1.73;100.00
66547;BME280;53400;50.364;14.874;2023-03-16T01:09:28;99134.00;;;-1.73;100.00
66547;BME280;53400;50.364;14.874;2023-03-16T01:11:53;99126.34;;;-1.66;100.00
66547;BME280;53400;50.364;14.874;2023-03-16T01:14:20;99131.34;;;-1.55;100.00
66547;BME280;53400;50.364;14.874;2023-03-16T01:16:46;99129.09;;;-1.94;100.00
66547;BME280;53400;50.364;14.874;2023-03-16T01:19:13;99132.47;;;-2.19;100.00
66547;BME280;53400;50.364;14.874;2023-03-16T01:21:39;99127.38;;;-2.03;100.00
66547;BME280;53400;50.364;14.874;2023-03-16T01:24:07;99133.59;;;-2.04;100.00
66547;BME280;53400;50.364;14.874;2023-03-16T01:26:34;99137.66;;;-1.92;100.00
66547;BME280;53400;50.364;14.874;2023-03-16T01:29:00;99133.88;;;-1.89;100.00
66547;BME280;53400;50.364;14.874;2023-03-16T01:31:26;99130.97;;;-2.04;100.00
66547;BME280;53400;50.364;14.874;2023-03-16T01:33:54;99138.84;;;-2.04;100.00
66547;BME280;53400;50.364;14.874;2023-03-16T01:36:20;99138.84;;;-2.04;100.00
66547;BME280;53400;50.364;14.874;2023-03-16T01:38:46;99140.50;;;-2.21;100.00
66547;BME280;53400;50.364;14.874;2023-03-16T01:41:14;99136.69;;;-2.26;100.00
66547;BME280;53400;50.364;14.874;2023-03-16T01:43:41;99140.13;;;-2.26;100.00
66547;BME280;53400;50.364;14.874;2023-03-16T01:46:18;99150.91;;;-2.29;100.00
66547;BME280;53400;50.364;14.874;2023-03-16T01:48:50;99147.47;;;-2.12;100.00
66547;BME280;53400;50.364;14.874;2023-03-16T01:51:20;99141.63;;;-2.05;100.00
66547;BME280;53400;50.364;14.874;2023-03-16T01:53:50;99140.84;;;-1.98;100.00
66547;BME280;53400;50.364;14.874;2023-03-16T01:56:21;99144.97;;;-1.95;100.00
66547;BME280;53400;50.364;14.874;2023-03-16T01:58:51;99140.34;;;-2.19;100.00
66547;BME280;53400;50.364;14.874;2023-03-16T02:01:18;99148.75;;;-2.16;100.00
66547;BME280;53400;50.364;14.874;2023-03-16T02:03:44;99144.47;;;-1.99;100.00
66547;BME280;53400;50.364;14.874;2023-03-16T02:06:13;99149.28;;;-2.12;100.00
66547;BME280;53400;50.364;14.874;2023-03-16T02:08:42;99145.75;;;-2.21;100.00
66547;BME280;53400;50.364;14.874;2023-03-16T02:11:09;99147.91;;;-1.98;100.00
66547;BME280;53400;50.364;14.874;2023-03-16T02:13:37;99141.31;;;-2.02;100.00
66547;BME280;53400;50.364;14.874;2023-03-16T02:16:05;99151.91;;;-2.30;100.00
66547;BME280;53400;50.364;14.874;2023-03-16T02:18:32;99152.72;;;-2.29;100.00
66547;BME280;53400;50.364;14.874;2023-03-16T02:21:04;99158.19;;;-2.23;100.00
66547;BME280;53400;50.364;14.874;2023-03-16T02:23:31;99154.81;;;-2.33;100.00
66547;BME280;53400;50.364;14.874;2023-03-16T02:26:01;99154.22;;;-2.09;100.00
66547;BME280;53400;50.364;14.874;2023-03-16T02:28:33;99164.47;;;-1.98;100.00
66547;BME280;53400;50.364;14.874;2023-03-16T02:31:04;99165.25;;;-1.62;100.00
66547;BME280;53400;50.364;14.874;2023-03-16T02:33:31;99170.03;;;-2.01;100.00
66547;BME280;53400;50.364;14.874;2023-03-16T02:35:57;99169.78;;;-2.61;100.00
66547;BME280;53400;50.364;14.874;2023-03-16T02:38:23;99173.22;;;-2.61;100.00
66547;BME280;53400;50.364;14.874;2023-03-16T02:40:55;99172.66;;;-2.82;100.00
66547;BME280;53400;50.364;14.874;2023-03-16T02:43:23;99185.47;;;-2.51;100.00
66547;BME280;53400;50.364;14.874;2023-03-16T02:45:52;99182.78;;;-2.42;100.00
66547;BME280;53400;50.364;14.874;2023-03-16T02:48:24;99184.09;;;-2.83;100.00
66547;BME280;53400;50.364;14.874;2023-03-16T02:50:53;99181.94;;;-2.88;100.00
66547;BME280;53400;50.364;14.874;2023-03-16T02:53:19;99176.97;;;-2.91;100.00
66547;BME280;53400;50.364;14.874;2023-03-16T02:55:45;99180.06;;;-2.78;100.00
66547;BME280;53400;50.364;14.874;2023-03-16T02:58:12;99176.41;;;-2.85;100.00
66547;BME280;53400;50.364;14.874;2023-03-16T03:00:38;99184.53;;;-2.88;100.00
66547;BME280;53400;50.364;14.874;2023-03-16T03:03:05;99179.78;;;-2.74;100.00
66547;BME280;53400;50.364;14.874;2023-03-16T03:05:34;99190.94;;;-2.45;100.00
66547;BME280;53400;50.364;14.874;2023-03-16T03:08:00;99193.13;;;-2.22;100.00
66547;BME280;53400;50.364;14.874;2023-03-16T03:10:26;99197.03;;;-2.26;100.00
66547;BME280;53400;50.364;14.874;2023-03-16T03:12:52;99187.22;;;-2.24;100.00
66547;BME280;53400;50.364;14.874;2023-03-16T03:15:17;99195.09;;;-2.24;100.00
66547;BME280;53400;50.364;14.874;2023-03-16T03:17:44;99198.06;;;-2.19;100.00
66547;BME280;53400;50.364;14.874;2023-03-16T03:20:11;99200.50;;;-2.54;100.00
66547;BME280;53400;50.364;14.874;2023-03-16T03:22:47;99197.25;;;-2.65;100.00
66547;BME280;53400;50.364;14.874;2023-03-16T03:25:15;99199.22;;;-3.05;100.00
66547;BME280;53400;50.364;14.874;2023-03-16T03:27:42;99203.47;;;-2.66;100.00
66547;BME280;53400;50.364;14.874;2023-03-16T03:30:09;99205.31;;;-3.04;100.00
66547;BME280;53400;50.364;14.874;2023-03-16T03:32:36;99212.69;;;-2.90;100.00
66547;BME280;53400;50.364;14.874;2023-03-16T03:35:01;99208.47;;;-3.01;100.00
66547;BME280;53400;50.364;14.874;2023-03-16T03:37:27;99207.16;;;-2.87;100.00
66547;BME280;53400;50.364;14.874;2023-03-16T03:39:54;99211.75;;;-2.61;100.00
66547;BME280;53400;50.364;14.874;2023-03-16T03:42:20;99207.91;;;-2.94;100.00
66547;BME280;53400;50.364;14.874;2023-03-16T03:44:48;99216.28;;;-2.91;100.00
66547;BME280;53400;50.364;14.874;2023-03-16T03:47:14;99215.50;;;-3.01;100.00
66547;BME280;53400;50.364;14.874;2023-03-16T03:49:39;99211.88;;;-2.63;100.00
66547;BME280;53400;50.364;14.874;2023-03-16T03:52:06;99217.63;;;-2.87;100.00
66547;BME280;53400;50.364;14.874;2023-03-16T03:54:31;99211.44;;;-2.86;100.00
66547;BME280;53400;50.364;14.874;2023-03-16T03:56:59;99223.72;;;-2.86;100.00
66547;BME280;53400;50.364;14.874;2023-03-16T03:59:25;99220.19;;;-2.67;100.00
66547;BME280;53400;50.364;14.874;2023-03-16T04:01:50;99225.03;;;-2.72;100.00
66547;BME280;53400;50.364;14.874;2023-03-16T04:04:18;99220.66;;;-2.54;100.00
66547;BME280;53400;50.364;14.874;2023-03-16T04:06:44;99225.38;;;-2.30;100.00
66547;BME280;53400;50.364;14.874;2023-03-16T04:09:10;99225.50;;;-2.59;100.00
66547;BME280;53400;50.364;14.874;2023-03-16T04:11:36;99224.41;;;-2.84;100.00
66547;BME280;53400;50.364;14.874;2023-03-16T04:14:03;99217.75;;;-2.51;100.00
66547;BME280;53400;50.364;14.874;2023-03-16T04:16:29;99220.97;;;-2.85;100.00
66547;BME280;53400;50.364;14.874;2023-03-16T04:18:56;99221.66;;;-2.55;100.00
66547;BME280;53400;50.364;14.874;2023-03-16T04:21:22;99233.03;;;-2.74;100.00
66547;BME280;53400;50.364;14.874;2023-03-16T04:23:48;99232.84;;;-2.90;100.00
66547;BME280;53400;50.364;14.874;2023-03-16T04:26:14;99231.53;;;-3.14;100.00
66547;BME280;53400;50.364;14.874;2023-03-16T04:28:41;99237.88;;;-3.07;100.00
66547;BME280;53400;50.364;14.874;2023-03-16T04:31:09;99239.88;;;-2.91;100.00
66547;BME280;53400;50.364;14.874;2023-03-16T04:33:37;99235.00;;;-3.13;100.00
66547;BME280;53400;50.364;14.874;2023-03-16T04:36:04;99239.09;;;-3.11;100.00
66547;BME280;53400;50.364;14.874;2023-03-16T04:38:32;99245.94;;;-2.90;100.00
66547;BME280;53400;50.364;14.874;2023-03-16T04:41:02;99251.53;;;-2.75;100.00
66547;BME280;53400;50.364;14.874;2023-03-16T04:43:29;99251.06;;;-2.89;100.00
66547;BME280;53400;50.364;14.874;2023-03-16T04:45:54;99255.44;;;-2.80;100.00
66547;BME280;53400;50.364;14.874;2023-03-16T04:48:22;99250.59;;;-2.84;100.00
66547;BME280;53400;50.364;14.874;2023-03-16T04:50:48;99247.75;;;-2.91;100.00
66547;BME280;53400;50.364;14.874;2023-03-16T04:53:15;99253.28;;;-2.94;100.00
66547;BME280;53400;50.364;14.874;2023-03-16T04:55:40;99249.66;;;-2.93;100.00
66547;BME280;53400;50.364;14.874;2023-03-16T04:58:06;99254.06;;;-2.84;100.00
66547;BME280;53400;50.364;14.874;2023-03-16T05:00:32;99254.06;;;-2.84;100.00
66547;BME280;53400;50.364;14.874;2023-03-16T05:02:58;99251.66;;;-3.14;100.00
66547;BME280;53400;50.364;14.874;2023-03-16T05:05:25;99258.88;;;-3.16;100.00
66547;BME280;53400;50.364;14.874;2023-03-16T05:07:51;99256.63;;;-3.11;100.00
66547;BME280;53400;50.364;14.874;2023-03-16T05:10:17;99258.09;;;-2.99;100.00
66547;BME280;53400;50.364;14.874;2023-03-16T05:12:43;99254.25;;;-2.95;100.00
66547;BME280;53400;50.364;14.874;2023-03-16T05:15:10;99257.72;;;-3.04;100.00
66547;BME280;53400;50.364;14.874;2023-03-16T05:17:36;99262.13;;;-2.95;100.00
66547;BME280;53400;50.364;14.874;2023-03-16T05:20:02;99262.13;;;-2.95;100.00
66547;BME280;53400;50.364;14.874;2023-03-16T05:22:34;99258.00;;;-3.07;100.00
66547;BME280;53400;50.364;14.874;2023-03-16T05:25:00;99265.03;;;-3.08;100.00
66547;BME280;53400;50.364;14.874;2023-03-16T05:27:28;99268.88;;;-2.65;100.00
66547;BME280;53400;50.364;14.874;2023-03-16T05:29:55;99271.56;;;-2.47;100.00
66547;BME280;53400;50.364;14.874;2023-03-16T05:32:21;99260.78;;;-2.44;100.00
66547;BME280;53400;50.364;14.874;2023-03-16T05:34:47;99262.50;;;-2.52;100.00
66547;BME280;53400;50.364;14.874;2023-03-16T05:37:13;99264.25;;;-2.81;100.00
66547;BME280;53400;50.364;14.874;2023-03-16T05:39:40;99269.38;;;-2.79;100.00
66547;BME280;53400;50.364;14.874;2023-03-16T05:42:06;99263.63;;;-2.65;100.00
66547;BME280;53400;50.364;14.874;2023-03-16T05:44:32;99272.19;;;-2.63;100.00
66547;BME280;53400;50.364;14.874;2023-03-16T05:46:58;99270.09;;;-2.59;100.00
66547;BME280;53400;50.364;14.874;2023-03-16T05:49:23;99268.34;;;-2.41;100.00
66547;BME280;53400;50.364;14.874;2023-03-16T05:51:50;99275.31;;;-2.22;100.00
66547;BME280;53400;50.364;14.874;2023-03-16T05:54:15;99276.22;;;-1.95;100.00
66547;BME280;53400;50.364;14.874;2023-03-16T05:56:43;99274.38;;;-1.85;100.00
66547;BME280;53400;50.364;14.874;2023-03-16T05:59:09;99273.00;;;-0.83;100.00
66547;BME280;53400;50.364;14.874;2023-03-16T06:01:35;99270.06;;;0.05;100.00
66547;BME280;53400;50.364;14.874;2023-03-16T06:04:00;99280.00;;;0.52;100.00
66547;BME280;53400;50.364;14.874;2023-03-16T06:06:27;99286.28;;;0.75;100.00
66547;BME280;53400;50.364;14.874;2023-03-16T06:08:53;99283.47;;;0.93;98.74
66547;BME280;53400;50.364;14.874;2023-03-16T06:11:19;99286.09;;;0.68;95.42
66547;BME280;53400;50.364;14.874;2023-03-16T06:13:46;99290.22;;;1.04;96.70
66547;BME280;53400;50.364;14.874;2023-03-16T06:16:12;99293.31;;;1.71;97.68
66547;BME280;53400;50.364;14.874;2023-03-16T06:18:41;99295.47;;;2.07;94.40
66547;BME280;53400;50.364;14.874;2023-03-16T06:21:07;99296.63;;;2.36;92.02
66547;BME280;53400;50.364;14.874;2023-03-16T06:23:33;99297.50;;;2.74;91.92
66547;BME280;53400;50.364;14.874;2023-03-16T06:26:00;99305.81;;;2.86;90.59
66547;BME280;53400;50.364;14.874;2023-03-16T06:28:26;99308.28;;;2.87;88.95
66547;BME280;53400;50.364;14.874;2023-03-16T06:30:53;99299.44;;;2.80;87.43
66547;BME280;53400;50.364;14.874;2023-03-16T06:33:19;99297.88;;;2.86;88.07
66547;BME280;53400;50.364;14.874;2023-03-16T06:35:45;99294.72;;;2.90;86.36
66547;BME280;53400;50.364;14.874;2023-03-16T06:38:12;99294.09;;;3.03;86.74
66547;BME280;53400;50.364;14.874;2023-03-16T06:40:38;99302.31;;;3.08;84.92
66547;BME280;53400;50.364;14.874;2023-03-16T06:43:05;99298.50;;;3.55;85.73
66547;BME280;53400;50.364;14.874;2023-03-16T06:45:31;99310.47;;;3.21;82.74
66547;BME280;53400;50.364;14.874;2023-03-16T06:47:58;99302.72;;;3.50;84.73
66547;BME280;53400;50.364;14.874;2023-03-16T06:50:24;99308.00;;;3.79;85.47
66547;BME280;53400;50.364;14.874;2023-03-16T06:52:50;99307.63;;;3.97;83.13
66547;BME280;53400;50.364;14.874;2023-03-16T06:55:16;99312.28;;;3.95;82.67
66547;BME280;53400;50.364;14.874;2023-03-16T06:57:42;99319.47;;;4.01;80.96
66547;BME280;53400;50.364;14.874;2023-03-16T07:00:09;99320.69;;;4.35;82.05
66547;BME280;53400;50.364;14.874;2023-03-16T07:02:38;99323.97;;;4.37;80.06
66547;BME280;53400;50.364;14.874;2023-03-16T07:05:08;99323.38;;;4.78;81.03
66547;BME280;53400;50.364;14.874;2023-03-16T07:07:38;99318.38;;;4.68;79.04
66547;BME280;53400;50.364;14.874;2023-03-16T07:10:08;99328.75;;;4.63;78.21
66547;BME280;53400;50.364;14.874;2023-03-16T07:12:35;99335.31;;;4.67;78.88
66547;BME280;53400;50.364;14.874;2023-03-16T07:15:06;99331.34;;;4.78;77.84
66547;BME280;53400;50.364;14.874;2023-03-16T07:17:33;99341.69;;;4.51;77.41
66547;BME280;53400;50.364;14.874;2023-03-16T07:20:00;99343.72;;;3.98;79.75
66547;BME280;53400;50.364;14.874;2023-03-16T07:22:33;99340.53;;;3.58;82.58
66547;BME280;53400;50.364;14.874;2023-03-16T07:24:59;99343.81;;;3.90;82.99
66547;BME280;53400;50.364;14.874;2023-03-16T07:27:26;99347.28;;;4.05;80.70
66547;BME280;53400;50.364;14.874;2023-03-16T07:29:57;99337.56;;;4.49;79.10
66547;BME280;53400;50.364;14.874;2023-03-16T07:32:26;99339.16;;;3.92;80.08
66547;BME280;53400;50.364;14.874;2023-03-16T07:34:53;99339.47;;;4.55;79.25
66547;BME280;53400;50.364;14.874;2023-03-16T07:37:21;99337.47;;;4.78;79.14
66547;BME280;53400;50.364;14.874;2023-03-16T07:39:51;99336.13;;;4.68;78.19
66547;BME280;53400;50.364;14.874;2023-03-16T07:42:19;99332.44;;;4.47;78.96
66547;BME280;53400;50.364;14.874;2023-03-16T07:44:47;99337.31;;;4.87;78.05
66547;BME280;53400;50.364;14.874;2023-03-16T07:47:13;99337.59;;;4.92;78.02
66547;BME280;53400;50.364;14.874;2023-03-16T07:49:40;99338.16;;;4.87;78.46
66547;BME280;53400;50.364;14.874;2023-03-16T07:52:09;99334.38;;;4.96;76.66
66547;BME280;53400;50.364;14.874;2023-03-16T07:54:39;99345.75;;;4.90;77.49
66547;BME280;53400;50.364;14.874;2023-03-16T07:57:07;99343.38;;;5.02;77.22
66547;BME280;53400;50.364;14.874;2023-03-16T07:59:34;99345.38;;;4.93;75.90
66547;BME280;53400;50.364;14.874;2023-03-16T08:02:01;99337.16;;;4.67;76.01
66547;BME280;53400;50.364;14.874;2023-03-16T08:04:28;99351.28;;;4.52;77.37
66547;BME280;53400;50.364;14.874;2023-03-16T08:06:56;99351.22;;;4.46;77.67
66547;BME280;53400;50.364;14.874;2023-03-16T08:09:25;99348.63;;;4.74;75.41
66547;BME280;53400;50.364;14.874;2023-03-16T08:11:52;99349.03;;;4.71;74.82
66547;BME280;53400;50.364;14.874;2023-03-16T08:14:20;99353.50;;;3.98;76.81
66547;BME280;53400;50.364;14.874;2023-03-16T08:16:46;99347.06;;;4.58;78.56
66547;BME280;53400;50.364;14.874;2023-03-16T08:19:13;99344.63;;;4.78;79.24
66547;BME280;53400;50.364;14.874;2023-03-16T08:21:39;99349.13;;;5.27;77.50
66547;BME280;53400;50.364;14.874;2023-03-16T08:24:06;99352.16;;;5.52;75.82
66547;BME280;53400;50.364;14.874;2023-03-16T08:26:32;99344.28;;;5.72;73.75
66547;BME280;53400;50.364;14.874;2023-03-16T08:28:59;99347.84;;;5.86;73.42
66547;BME280;53400;50.364;14.874;2023-03-16T08:31:30;99351.38;;;5.93;72.08
66547;BME280;53400;50.364;14.874;2023-03-16T08:34:00;99352.25;;;6.00;71.80
66547;BME280;53400;50.364;14.874;2023-03-16T08:36:26;99351.09;;;5.46;74.76
66547;BME280;53400;50.364;14.874;2023-03-16T08:38:57;99349.56;;;5.93;74.77
66547;BME280;53400;50.364;14.874;2023-03-16T08:41:25;99344.28;;;6.00;74.22
66547;BME280;53400;50.364;14.874;2023-03-16T08:43:55;99353.97;;;5.86;74.25
66547;BME280;53400;50.364;14.874;2023-03-16T08:46:22;99351.50;;;6.13;72.89
66547;BME280;53400;50.364;14.874;2023-03-16T08:48:51;99349.91;;;6.25;73.72
66547;BME280;53400;50.364;14.874;2023-03-16T08:51:17;99361.34;;;6.19;70.96
66547;BME280;53400;50.364;14.874;2023-03-16T08:53:44;99359.06;;;6.09;71.61
66547;BME280;53400;50.364;14.874;2023-03-16T08:56:12;99353.53;;;6.11;73.92
66547;BME280;53400;50.364;14.874;2023-03-16T08:58:40;99361.34;;;6.19;72.06
66547;BME280;53400;50.364;14.874;2023-03-16T09:01:11;99355.97;;;6.06;71.10
66547;BME280;53400;50.364;14.874;2023-03-16T09:03:39;99352.72;;;6.10;74.47
66547;BME280;53400;50.364;14.874;2023-03-16T09:06:14;99362.47;;;5.96;70.71
66547;BME280;53400;50.364;14.874;2023-03-16T09:08:42;99362.72;;;6.08;71.97
66547;BME280;53400;50.364;14.874;2023-03-16T09:11:11;99362.13;;;6.13;74.38
66547;BME280;53400;50.364;14.874;2023-03-16T09:13:41;99369.81;;;6.42;74.57
66547;BME280;53400;50.364;14.874;2023-03-16T09:16:09;99374.91;;;6.37;70.10
66547;BME280;53400;50.364;14.874;2023-03-16T09:18:39;99368.50;;;6.18;72.08
66547;BME280;53400;50.364;14.874;2023-03-16T09:21:07;99371.53;;;5.81;72.57
66547;BME280;53400;50.364;14.874;2023-03-16T09:23:36;99366.59;;;5.78;71.47
66547;BME280;53400;50.364;14.874;2023-03-16T09:26:04;99374.00;;;5.82;74.55
66547;BME280;53400;50.364;14.874;2023-03-16T09:28:30;99376.56;;;5.69;70.23
66547;BME280;53400;50.364;14.874;2023-03-16T09:30:58;99382.91;;;5.68;74.44
66547;BME280;53400;50.364;14.874;2023-03-16T09:33:25;99384.38;;;5.42;71.31
66547;BME280;53400;50.364;14.874;2023-03-16T09:35:52;99382.31;;;4.73;74.35
66547;BME280;53400;50.364;14.874;2023-03-16T09:38:19;99382.53;;;5.15;72.23
66547;BME280;53400;50.364;14.874;2023-03-16T09:40:47;99378.59;;;4.68;73.48
66547;BME280;53400;50.364;14.874;2023-03-16T09:43:32;99386.75;;;4.30;74.40
66547;BME280;53400;50.364;14.874;2023-03-16T09:46:08;99390.78;;;4.47;74.77
66547;BME280;53400;50.364;14.874;2023-03-16T09:48:37;99386.59;;;4.74;74.67
66547;BME280;53400;50.364;14.874;2023-03-16T09:51:06;99385.41;;;4.98;71.54
66547;BME280;53400;50.364;14.874;2023-03-16T09:53:34;99376.19;;;4.94;72.27
66547;BME280;53400;50.364;14.874;2023-03-16T09:56:05;99391.72;;;4.54;71.81
66547;BME280;53400;50.364;14.874;2023-03-16T09:58:33;99377.63;;;4.03;74.24
66547;BME280;53400;50.364;14.874;2023-03-16T10:01:06;99391.03;;;4.16;75.48
66547;BME280;53400;50.364;14.874;2023-03-16T10:03:56;99387.41;;;4.53;74.22
66547;BME280;53400;50.364;14.874;2023-03-16T10:06:25;99383.28;;;4.29;73.28
66547;BME280;53400;50.364;14.874;2023-03-16T10:08:58;99376.16;;;3.71;75.13
66547;BME280;53400;50.364;14.874;2023-03-16T10:11:32;99382.91;;;3.58;74.61
66547;BME280;53400;50.364;14.874;2023-03-16T10:14:08;99376.09;;;4.45;75.45
66547;BME280;53400;50.364;14.874;2023-03-16T10:16:39;99375.72;;;4.84;76.67
66547;BME280;53400;50.364;14.874;2023-03-16T10:19:11;99371.53;;;5.46;75.25
66547;BME280;53400;50.364;14.874;2023-03-16T10:21:40;99375.97;;;5.39;68.78
66547;BME280;53400;50.364;14.874;2023-03-16T10:24:18;99370.41;;;5.34;70.05
66547;BME280;53400;50.364;14.874;2023-03-16T10:26:53;99377.31;;;5.56;69.77
66547;BME280;53400;50.364;14.874;2023-03-16T10:29:22;99369.94;;;5.86;67.58
66547;BME280;53400;50.364;14.874;2023-03-16T10:31:49;99373.13;;;5.75;65.29
66547;BME280;53400;50.364;14.874;2023-03-16T10:34:17;99372.34;;;5.46;68.45
66547;BME280;53400;50.364;14.874;2023-03-16T10:36:43;99373.59;;;5.22;68.05
66547;BME280;53400;50.364;14.874;2023-03-16T10:39:11;99371.50;;;5.18;62.28
66547;BME280;53400;50.364;14.874;2023-03-16T10:41:41;99374.47;;;5.58;64.99
66547;BME280;53400;50.364;14.874;2023-03-16T10:44:11;99371.44;;;5.33;59.90
66547;BME280;53400;50.364;14.874;2023-03-16T10:46:39;99366.50;;;5.92;61.29
66547;BME280;53400;50.364;14.874;2023-03-16T10:49:19;99368.91;;;5.87;65.46
66547;BME280;53400;50.364;14.874;2023-03-16T10:51:46;99366.25;;;5.52;63.57
66547;BME280;53400;50.364;14.874;2023-03-16T10:54:15;99359.97;;;5.60;64.77
66547;BME280;53400;50.364;14.874;2023-03-16T10:56:42;99363.09;;;5.70;65.93
66547;BME280;53400;50.364;14.874;2023-03-16T10:59:14;99356.94;;;5.98;62.19
66547;BME280;53400;50.364;14.874;2023-03-16T11:01:44;99358.31;;;6.29;62.04
66547;BME280;53400;50.364;14.874;2023-03-16T11:04:18;99356.31;;;6.51;65.12
66547;BME280;53400;50.364;14.874;2023-03-16T11:06:50;99351.47;;;6.81;63.86
66547;BME280;53400;50.364;14.874;2023-03-16T11:09:21;99354.34;;;6.73;63.17
66547;BME280;53400;50.364;14.874;2023-03-16T11:11:49;99356.56;;;6.01;66.13
66547;BME280;53400;50.364;14.874;2023-03-16T11:14:19;99354.31;;;6.59;63.17
66547;BME280;53400;50.364;14.874;2023-03-16T11:16:49;99350.44;;;6.62;61.91
66547;BME280;53400;50.364;14.874;2023-03-16T11:19:20;99346.31;;;6.66;62.41
66547;BME280;53400;50.364;14.874;2023-03-16T11:21:49;99349.63;;;6.61;61.45
66547;BME280;53400;50.364;14.874;2023-03-16T11:24:24;99341.25;;;7.11;64.00
66547;BME280;53400;50.364;14.874;2023-03-16T11:26:53;99336.34;;;7.15;60.50
66547;BME280;53400;50.364;14.874;2023-03-16T11:29:27;99333.91;;;7.20;58.83
66547;BME280;53400;50.364;14.874;2023-03-16T11:31:58;99334.72;;;7.00;59.32
66547;BME280;53400;50.364;14.874;2023-03-16T11:34:28;99325.69;;;7.08;62.01
66547;BME280;53400;50.364;14.874;2023-03-16T11:36:56;99325.28;;;6.98;64.06
66547;BME280;53400;50.364;14.874;2023-03-16T11:39:36;99320.38;;;7.34;58.18
66547;BME280;53400;50.364;14.874;2023-03-16T11:42:15;99322.22;;;7.14;61.16
66547;BME280;53400;50.364;14.874;2023-03-16T11:44:48;99321.41;;;7.13;60.50
66547;BME280;53400;50.364;14.874;2023-03-16T11:47:35;99318.91;;;7.52;60.71
66547;BME280;53400;50.364;14.874;2023-03-16T11:50:10;99316.06;;;7.33;58.28
66547;BME280;53400;50.364;14.874;2023-03-16T11:52:45;99317.47;;;7.36;57.75
66547;BME280;53400;50.364;14.874;2023-03-16T11:55:23;99310.53;;;7.02;60.06
66547;BME280;53400;50.364;14.874;2023-03-16T11:58:02;99307.41;;;7.45;59.01
66547;BME280;53400;50.364;14.874;2023-03-16T12:00:41;99309.47;;;7.56;55.67
66547;BME280;53400;50.364;14.874;2023-03-16T12:03:34;99300.66;;;7.49;58.80
66547;BME280;53400;50.364;14.874;2023-03-16T12:06:17;99298.19;;;7.47;55.45
66547;BME280;53400;50.364;14.874;2023-03-16T12:09:00;99291.84;;;7.42;59.74
66547;BME280;53400;50.364;14.874;2023-03-16T12:11:33;99294.91;;;7.45;54.94
66547;BME280;53400;50.364;14.874;2023-03-16T12:14:07;99294.09;;;7.58;54.13
66547;BME280;53400;50.364;14.874;2023-03-16T12:16:53;99296.28;;;7.74;53.43
66547;BME280;53400;50.364;14.874;2023-03-16T12:19:22;99287.34;;;7.49;52.45
66547;BME280;53400;50.364;14.874;2023-03-16T12:21:59;99295.91;;;7.64;53.68
66547;BME280;53400;50.364;14.874;2023-03-16T12:24:32;99291.16;;;7.79;55.73
66547;BME280;53400;50.364;14.874;2023-03-16T12:27:01;99300.31;;;7.97;53.63
66547;BME280;53400;50.364;14.874;2023-03-16T12:29:32;99307.06;;;6.95;55.77
66547;BME280;53400;50.364;14.874;2023-03-16T12:32:08;99300.66;;;6.69;56.38
66547;BME280;53400;50.364;14.874;2023-03-16T12:34:40;99299.25;;;6.73;56.54
66547;BME280;53400;50.364;14.874;2023-03-16T12:37:32;99299.66;;;6.97;59.47
66547;BME280;53400;50.364;14.874;2023-03-16T12:40:07;99295.34;;;7.35;55.31
66547;BME280;53400;50.364;14.874;2023-03-16T12:45:42;99293.91;;;7.26;57.77
66547;BME280;53400;50.364;14.874;2023-03-16T12:48:19;99285.75;;;7.01;60.98
66547;BME280;53400;50.364;14.874;2023-03-16T12:50:49;99284.09;;;7.20;60.30
66547;BME280;53400;50.364;14.874;2023-03-16T12:53:25;99284.50;;;6.71;58.02
66547;BME280;53400;50.364;14.874;2023-03-16T12:55:53;99282.44;;;6.53;58.75
66547;BME280;53400;50.364;14.874;2023-03-16T12:58:22;99278.56;;;6.62;58.50
66547;BME280;53400;50.364;14.874;2023-03-16T13:00:54;99276.72;;;6.56;58.14